Time;durP1;ratioP1;P1;durP2;ratioP2;P2;SDS_P1;SDS_P2;PMS_P1;PMS_P2;Temp;Humidity;BMP_temperature;BMP_pressure;BME280_temperature;BME280_humidity;BME280_pressure;Samples;Min_cycle;Max_cycle;Signal;HPM_P1;HPM_P2
2022/08/10 00:01:30;;;;;;;3.90;3.17;;;15.00;99.90;;;;;;4821644;29;20034;-54
2022/08/10 00:03:56;;;;;;;3.83;3.42;;;15.00;99.90;;;;;;4823065;29;20098;-51
2022/08/10 00:06:21;;;;;;;5.78;3.45;;;14.90;99.90;;;;;;4823089;29;20034;-50
2022/08/10 00:08:47;;;;;;;4.70;3.15;;;14.90;99.90;;;;;;4823031;29;20030;-52
2022/08/10 00:11:13;;;;;;;10.20;3.10;;;14.90;99.90;;;;;;4821610;29;20030;-50
2022/08/10 00:13:38;;;;;;;5.90;3.00;;;15.00;99.90;;;;;;4823201;29;20058;-53
2022/08/10 00:16:04;;;;;;;5.70;2.92;;;15.10;99.90;;;;;;4823112;29;20030;-53
2022/08/10 00:18:42;;;;;;;7.60;3.10;;;15.20;99.90;;;;;;4822729;29;20026;-52
2022/08/10 00:21:08;;;;;;;8.57;3.50;;;15.20;99.90;;;;;;4822914;29;20109;-54
2022/08/10 00:23:35;;;;;;;3.17;2.88;;;15.10;99.90;;;;;;4822889;29;20448;-52
2022/08/10 00:26:02;;;;;;;4.95;3.40;;;15.00;99.90;;;;;;4822632;29;20094;-50
2022/08/10 00:28:28;;;;;;;5.50;3.45;;;15.00;99.90;;;;;;4822759;29;20053;-53
2022/08/10 00:30:54;;;;;;;3.60;3.30;;;15.00;99.90;;;;;;4822942;29;20526;-51
2022/08/10 00:33:20;;;;;;;8.20;3.50;;;15.10;99.90;;;;;;4821126;29;20026;-50
2022/08/10 00:35:46;;;;;;;5.25;3.03;;;15.20;99.90;;;;;;4822763;29;20034;-50
2022/08/10 00:38:12;;;;;;;6.72;2.92;;;15.30;99.90;;;;;;4822581;29;20411;-52
2022/08/10 00:40:38;;;;;;;6.05;3.30;;;15.30;99.90;;;;;;4822690;29;20041;-50
2022/08/10 00:43:06;;;;;;;5.05;4.25;;;15.30;99.90;;;;;;4822583;29;20095;-51
2022/08/10 00:45:33;;;;;;;5.43;2.80;;;15.30;99.90;;;;;;4822627;29;20375;-53
2022/08/10 00:47:59;;;;;;;5.25;3.40;;;15.40;99.90;;;;;;4822175;29;20039;-49
2022/08/10 00:50:24;;;;;;;4.05;3.35;;;15.40;99.90;;;;;;4822501;29;20041;-51
2022/08/10 00:52:51;;;;;;;8.63;3.35;;;15.40;99.90;;;;;;4821208;29;20034;-51
2022/08/10 00:55:17;;;;;;;10.18;3.10;;;15.40;99.90;;;;;;4822251;29;20065;-51
2022/08/10 00:57:45;;;;;;;6.65;3.33;;;15.40;99.90;;;;;;4822224;29;20053;-50
2022/08/10 01:00:11;;;;;;;10.73;3.53;;;15.40;99.90;;;;;;4822323;29;20389;-51
2022/08/10 01:02:36;;;;;;;8.10;3.20;;;15.50;99.90;;;;;;4822510;29;20035;-50
2022/08/10 01:05:07;;;;;;;4.70;3.35;;;15.50;99.90;;;;;;4821238;29;20031;-50
2022/08/10 01:07:59;;;;;;;10.07;3.53;;;15.50;99.90;;;;;;4822405;29;20109;-49
2022/08/10 01:10:40;;;;;;;7.55;3.35;;;15.50;99.90;;;;;;4821129;29;20126;-50
2022/08/10 01:13:29;;;;;;;7.25;3.38;;;15.50;99.90;;;;;;4822207;29;20673;-49
2022/08/10 01:16:19;;;;;;;9.43;3.92;;;15.50;99.90;;;;;;4822166;29;20225;-50
2022/08/10 01:19:12;;;;;;;6.50;2.90;;;15.60;99.90;;;;;;4822249;29;20125;-51
2022/08/10 01:22:05;;;;;;;14.05;3.40;;;15.60;99.90;;;;;;4821159;29;20507;-50
2022/08/10 01:24:57;;;;;;;4.57;3.00;;;15.70;99.90;;;;;;4822358;29;20090;-50
2022/08/10 01:27:37;;;;;;;6.07;3.08;;;15.80;99.90;;;;;;4822000;29;20022;-49
2022/08/10 01:30:11;;;;;;;3.97;2.97;;;15.80;99.90;;;;;;4821998;29;20027;-50
2022/08/10 01:32:48;;;;;;;6.90;4.35;;;15.80;99.90;;;;;;4822413;29;20027;-50
2022/08/10 01:35:34;;;;;;;7.90;3.30;;;15.70;99.90;;;;;;4822132;29;20117;-49
2022/08/10 01:38:13;;;;;;;5.60;3.20;;;15.60;99.90;;;;;;4821871;29;20378;-50
2022/08/10 01:40:53;;;;;;;6.97;3.33;;;15.60;99.90;;;;;;4821785;29;20061;-49
2022/08/10 01:43:20;;;;;;;8.82;3.33;;;15.40;99.90;;;;;;4822221;29;20054;-51
2022/08/10 01:45:50;;;;;;;12.07;3.88;;;15.30;99.90;;;;;;4822451;29;20030;-51
2022/08/10 01:48:43;;;;;;;4.90;3.33;;;15.20;99.90;;;;;;4825253;29;20111;-52
2022/08/10 01:51:16;;;;;;;15.90;3.45;;;15.00;99.90;;;;;;4825159;29;20119;-50
2022/08/10 01:53:54;;;;;;;7.30;3.35;;;14.80;99.90;;;;;;4825461;29;20577;-51
2022/08/10 01:56:23;;;;;;;7.07;3.10;;;14.70;99.90;;;;;;4811409;29;20523;-49
2022/08/10 01:59:01;;;;;;;11.05;3.55;;;14.60;99.90;;;;;;4825104;29;20083;-52
2022/08/10 02:01:37;;;;;;;6.18;4.07;;;14.60;99.90;;;;;;4807220;29;20042;-51
2022/08/10 02:04:08;;;;;;;8.80;3.83;;;14.60;99.90;;;;;;4809562;29;20041;-49
2022/08/10 02:06:45;;;;;;;10.50;4.40;;;14.60;99.90;;;;;;4824576;29;20034;-51
2022/08/10 02:09:15;;;;;;;7.30;4.03;;;14.50;99.90;;;;;;4824752;29;20021;-51
2022/08/10 02:11:43;;;;;;;10.57;3.58;;;14.50;99.90;;;;;;4825057;29;20030;-50
2022/08/10 02:14:12;;;;;;;9.05;3.90;;;14.40;99.90;;;;;;4824418;29;20042;-49
2022/08/10 02:16:41;;;;;;;6.53;3.45;;;14.40;99.90;;;;;;4824935;29;20061;-50
2022/08/10 02:19:08;;;;;;;9.57;3.83;;;14.40;99.90;;;;;;4824793;29;20045;-50
2022/08/10 02:21:35;;;;;;;8.02;4.00;;;14.50;99.90;;;;;;4824843;29;20034;-50
2022/08/10 02:24:03;;;;;;;3.75;3.22;;;14.50;99.90;;;;;;4824503;29;20026;-51
2022/08/10 02:26:29;;;;;;;6.70;3.60;;;14.60;99.90;;;;;;4824862;29;20026;-49
2022/08/10 02:28:56;;;;;;;5.13;3.60;;;14.60;99.90;;;;;;4824451;29;20032;-49
2022/08/10 02:31:24;;;;;;;11.30;3.70;;;14.70;99.90;;;;;;4824689;29;20095;-50
2022/08/10 02:33:53;;;;;;;10.35;3.72;;;14.70;99.90;;;;;;4824477;29;20026;-49
2022/08/10 02:36:21;;;;;;;6.72;3.50;;;14.70;99.90;;;;;;4824609;29;20849;-54
2022/08/10 02:38:55;;;;;;;5.53;3.50;;;14.80;99.90;;;;;;4824639;29;20026;-50
2022/08/10 02:41:38;;;;;;;5.78;3.45;;;14.60;99.90;;;;;;4824465;29;20027;-50
2022/08/10 02:44:17;;;;;;;9.68;4.00;;;14.50;99.90;;;;;;4824102;29;20036;-54
2022/08/10 02:46:54;;;;;;;15.18;3.92;;;14.50;99.90;;;;;;4824476;29;20054;-51
2022/08/10 02:49:25;;;;;;;5.50;3.38;;;14.50;99.90;;;;;;4824314;29;20241;-51
2022/08/10 02:52:00;;;;;;;5.90;3.45;;;14.50;99.90;;;;;;4823447;29;20057;-51
2022/08/10 02:54:31;;;;;;;9.90;3.58;;;14.40;99.90;;;;;;4823884;29;20079;-51
2022/08/10 02:57:18;;;;;;;5.10;3.95;;;14.40;99.90;;;;;;4823686;29;20030;-51
2022/08/10 02:59:49;;;;;;;6.18;3.50;;;14.30;99.90;;;;;;4824244;29;20035;-53
2022/08/10 03:02:45;;;;;;;4.97;3.85;;;14.20;99.90;;;;;;4823890;29;20045;-50
2022/08/10 03:05:13;;;;;;;5.03;3.55;;;14.10;99.90;;;;;;4823282;29;20054;-51
2022/08/10 03:07:58;;;;;;;11.15;4.43;;;13.90;99.90;;;;;;4824211;29;20463;-49
2022/08/10 03:10:27;;;;;;;9.18;4.82;;;13.80;99.90;;;;;;4824038;29;20615;-49
2022/08/10 03:13:01;;;;;;;7.40;4.28;;;13.60;99.90;;;;;;4823951;29;20092;-50
2022/08/10 03:15:28;;;;;;;7.38;3.88;;;13.60;99.90;;;;;;4823769;29;20458;-51
2022/08/10 03:17:56;;;;;;;5.57;4.07;;;13.60;99.90;;;;;;4823849;29;20192;-50
2022/08/10 03:20:23;;;;;;;9.02;4.50;;;13.70;99.90;;;;;;4823971;29;20387;-50
2022/08/10 03:22:50;;;;;;;5.53;4.25;;;13.80;99.90;;;;;;4822799;29;20038;-51
2022/08/10 03:25:19;;;;;;;8.52;4.82;;;13.80;99.90;;;;;;4823525;29;20117;-51
2022/08/10 03:27:47;;;;;;;6.95;4.45;;;13.70;99.90;;;;;;4824065;29;20030;-50
2022/08/10 03:30:14;;;;;;;8.00;4.45;;;13.60;99.90;;;;;;4823779;29;20573;-49
2022/08/10 03:32:41;;;;;;;10.18;3.92;;;13.50;99.90;;;;;;4823609;29;20747;-49
2022/08/10 03:35:08;;;;;;;12.90;4.47;;;13.50;99.90;;;;;;4823366;29;20034;-51
2022/08/10 03:37:34;;;;;;;9.82;3.78;;;13.40;99.90;;;;;;4823749;29;20034;-52
2022/08/10 03:40:00;;;;;;;7.57;4.10;;;13.40;99.90;;;;;;4823517;29;20094;-50
2022/08/10 03:42:28;;;;;;;11.77;3.85;;;13.40;99.90;;;;;;4823792;29;20030;-50
2022/08/10 03:44:56;;;;;;;15.82;5.43;;;13.30;99.90;;;;;;4823148;29;20394;-54
2022/08/10 03:47:23;;;;;;;11.27;4.85;;;13.30;99.90;;;;;;4823550;29;20038;-50
2022/08/10 03:49:50;;;;;;;5.78;4.25;;;13.40;99.90;;;;;;4823484;29;20030;-50
2022/08/10 03:52:17;;;;;;;11.55;4.43;;;13.40;99.90;;;;;;4823362;29;20054;-52
2022/08/10 03:54:44;;;;;;;7.18;4.70;;;13.60;99.90;;;;;;4823355;29;20407;-50
2022/08/10 03:57:11;;;;;;;9.25;4.05;;;13.80;99.90;;;;;;4823267;29;20066;-50
2022/08/10 03:59:37;;;;;;;6.82;4.07;;;14.00;99.90;;;;;;4823301;29;20042;-50
2022/08/10 04:02:05;;;;;;;11.00;3.95;;;14.10;99.90;;;;;;4822673;29;20124;-53
2022/08/10 04:04:31;;;;;;;10.85;4.47;;;14.20;99.90;;;;;;4823161;29;20047;-50
2022/08/10 04:06:58;;;;;;;14.50;4.10;;;14.40;99.90;;;;;;4823249;29;20029;-51
2022/08/10 04:09:29;;;;;;;9.38;4.10;;;14.60;99.90;;;;;;4822463;29;20037;-51
2022/08/10 04:11:55;;;;;;;5.88;3.50;;;14.60;99.90;;;;;;4823054;29;20057;-50
2022/08/10 04:14:20;;;;;;;9.48;4.20;;;14.70;99.90;;;;;;4822660;29;20046;-54
2022/08/10 04:16:46;;;;;;;7.47;4.60;;;14.80;99.90;;;;;;4823037;29;20079;-51
2022/08/10 04:19:14;;;;;;;8.15;3.92;;;14.90;99.90;;;;;;4822721;29;20058;-51
2022/08/10 04:21:44;;;;;;;10.98;3.75;;;14.90;99.90;;;;;;4823079;29;20035;-51
2022/08/10 04:24:16;;;;;;;5.68;3.35;;;14.90;99.90;;;;;;4822961;29;20082;-52
2022/08/10 04:26:42;;;;;;;8.80;3.55;;;15.00;99.90;;;;;;4804765;29;20035;-50
2022/08/10 04:29:08;;;;;;;12.45;3.88;;;15.00;99.90;;;;;;4809295;29;20031;-52
2022/08/10 04:31:36;;;;;;;19.73;4.45;;;14.90;99.90;;;;;;4821604;29;20066;-51
2022/08/10 04:34:02;;;;;;;7.78;3.70;;;15.00;99.90;;;;;;4821830;29;20064;-51
2022/08/10 04:36:28;;;;;;;6.15;3.60;;;15.00;99.90;;;;;;4821420;29;20026;-52
2022/08/10 04:38:55;;;;;;;12.88;3.75;;;15.00;99.90;;;;;;4821262;29;20069;-51
2022/08/10 04:41:22;;;;;;;5.30;4.60;;;15.00;99.90;;;;;;4821747;29;20034;-52
2022/08/10 04:43:48;;;;;;;8.57;3.95;;;15.10;99.90;;;;;;4821535;29;20099;-50
2022/08/10 04:46:14;;;;;;;5.22;3.50;;;15.10;99.90;;;;;;4821429;29;20065;-51
2022/08/10 04:48:39;;;;;;;11.05;4.45;;;15.20;99.90;;;;;;4821587;29;20034;-49
2022/08/10 04:51:05;;;;;;;8.80;3.38;;;15.30;99.90;;;;;;4821957;29;20049;-52
2022/08/10 04:53:31;;;;;;;9.43;4.70;;;15.30;99.90;;;;;;4821227;29;20079;-49
2022/08/10 04:55:57;;;;;;;4.53;2.92;;;15.40;99.90;;;;;;4820844;29;20711;-50
2022/08/10 04:58:23;;;;;;;9.32;3.67;;;15.40;99.90;;;;;;4821245;29;20117;-49
2022/08/10 05:00:48;;;;;;;8.55;3.70;;;15.50;99.90;;;;;;4821444;29;20494;-51
2022/08/10 05:03:14;;;;;;;9.68;3.15;;;15.50;99.90;;;;;;4820919;29;20039;-50
2022/08/10 05:05:39;;;;;;;6.22;4.10;;;15.50;99.90;;;;;;4820842;29;20084;-51
2022/08/10 05:08:05;;;;;;;4.05;3.42;;;15.60;99.90;;;;;;4821296;29;20026;-49
2022/08/10 05:10:31;;;;;;;6.35;3.38;;;15.60;99.90;;;;;;4821086;29;20424;-51
2022/08/10 05:12:57;;;;;;;15.95;4.00;;;15.70;99.90;;;;;;4821030;29;20043;-50
2022/08/10 05:15:23;;;;;;;7.65;3.35;;;15.70;99.90;;;;;;4821211;29;20034;-49
2022/08/10 05:17:49;;;;;;;6.88;3.55;;;15.80;99.90;;;;;;4821393;29;20446;-50
2022/08/10 05:20:15;;;;;;;13.10;3.63;;;15.90;99.90;;;;;;4819724;29;20113;-52
2022/08/10 05:22:43;;;;;;;18.00;3.60;;;16.00;99.90;;;;;;4824585;29;20153;-49
2022/08/10 05:25:17;;;;;;;6.00;3.60;;;16.10;99.90;;;;;;4824164;29;20391;-50
2022/08/10 05:27:44;;;;;;;4.65;3.65;;;16.10;99.90;;;;;;4824481;29;20038;-50
2022/08/10 05:30:18;;;;;;;10.80;3.78;;;16.10;99.90;;;;;;4824604;29;20030;-51
2022/08/10 05:32:44;;;;;;;11.05;3.50;;;16.20;99.90;;;;;;4824728;29;20347;-53
2022/08/10 05:35:10;;;;;;;6.10;3.67;;;16.20;99.90;;;;;;4824110;29;20030;-52
2022/08/10 05:37:36;;;;;;;6.25;3.30;;;16.30;99.90;;;;;;4824113;29;20310;-50
2022/08/10 05:40:05;;;;;;;10.70;3.70;;;16.30;99.90;;;;;;4824286;29;20110;-52
2022/08/10 05:42:31;;;;;;;13.48;4.05;;;16.40;99.90;;;;;;4824460;29;20069;-50
2022/08/10 05:44:57;;;;;;;6.63;3.70;;;16.50;99.90;;;;;;4823604;29;20050;-49
2022/08/10 05:47:23;;;;;;;16.25;4.07;;;16.60;99.90;;;;;;4824321;29;20378;-51
2022/08/10 05:49:49;;;;;;;5.47;3.38;;;16.60;99.90;;;;;;4824047;29;20395;-49
2022/08/10 05:52:16;;;;;;;8.23;4.50;;;16.70;99.90;;;;;;4824116;29;20683;-50
2022/08/10 05:54:42;;;;;;;8.27;3.95;;;16.70;99.90;;;;;;4823894;29;20030;-51
2022/08/10 05:57:11;;;;;;;6.95;4.32;;;16.70;99.90;;;;;;4823876;29;20368;-50
2022/08/10 05:59:42;;;;;;;6.78;3.63;;;16.80;99.90;;;;;;4824239;29;20022;-50
2022/08/10 06:02:08;;;;;;;9.10;3.58;;;16.80;99.90;;;;;;4809093;29;20027;-51
2022/08/10 06:04:39;;;;;;;13.68;3.78;;;16.90;99.90;;;;;;4805959;29;20502;-50
2022/08/10 06:07:06;;;;;;;13.15;3.85;;;16.90;99.90;;;;;;4805904;29;20368;-50
2022/08/10 06:09:34;;;;;;;6.60;4.18;;;17.00;99.90;;;;;;4806154;29;20023;-49
2022/08/10 06:12:01;;;;;;;8.40;3.92;;;17.10;99.90;;;;;;4810338;29;20030;-50
2022/08/10 06:17:17;;;;;;;11.27;4.82;;;17.20;99.90;;;;;;4805854;29;20538;-50
2022/08/10 06:19:43;;;;;;;18.60;4.68;;;17.30;99.90;;;;;;4810707;29;20442;-52
2022/08/10 06:22:10;;;;;;;10.52;4.10;;;17.30;99.90;;;;;;4823326;29;20043;-50
2022/08/10 06:24:39;;;;;;;7.85;4.13;;;17.40;99.90;;;;;;4823382;29;20035;-51
2022/08/10 06:27:06;;;;;;;12.93;4.20;;;17.40;99.90;;;;;;4808928;29;20094;-50
2022/08/10 06:29:33;;;;;;;9.45;4.85;;;17.50;99.90;;;;;;4823685;29;20050;-51
2022/08/10 06:32:01;;;;;;;7.45;3.70;;;17.50;99.90;;;;;;4822779;29;20040;-51
2022/08/10 06:34:31;;;;;;;7.63;3.95;;;17.50;99.90;;;;;;4823655;29;20026;-51
2022/08/10 06:37:03;;;;;;;9.32;4.40;;;17.60;99.90;;;;;;4823166;29;20046;-50
2022/08/10 06:39:29;;;;;;;4.75;4.00;;;17.80;99.90;;;;;;4823252;29;20394;-51
2022/08/10 06:42:17;;;;;;;12.80;3.92;;;17.90;99.90;;;;;;4823381;29;20073;-52
2022/08/10 06:44:53;;;;;;;6.78;3.88;;;17.90;99.90;;;;;;4823135;29;20475;-50
2022/08/10 06:47:24;;;;;;;12.80;4.18;;;18.00;99.90;;;;;;4823437;29;20026;-50
2022/08/10 06:49:53;;;;;;;9.07;3.28;;;18.10;99.90;;;;;;4823079;29;20030;-51
2022/08/10 06:52:21;;;;;;;8.27;3.97;;;18.20;99.90;;;;;;4823132;29;20532;-51
2022/08/10 06:54:48;;;;;;;6.68;3.35;;;18.20;99.90;;;;;;4822884;29;20110;-50
2022/08/10 06:57:15;;;;;;;9.60;4.10;;;18.40;99.90;;;;;;4822474;29;20030;-50
2022/08/10 06:59:44;;;;;;;7.20;3.75;;;18.30;99.90;;;;;;4823218;29;20023;-49
2022/08/10 07:02:35;;;;;;;13.73;4.28;;;18.50;99.90;;;;;;4822949;29;20029;-51
2022/08/10 07:05:04;;;;;;;5.63;3.35;;;18.50;99.90;;;;;;4822750;29;20022;-50
2022/08/10 07:07:35;;;;;;;8.50;3.60;;;18.50;99.90;;;;;;4823204;29;20415;-49
2022/08/10 07:10:00;;;;;;;11.32;3.97;;;18.60;99.90;;;;;;4822528;29;20367;-50
2022/08/10 07:12:27;;;;;;;7.72;3.30;;;18.70;99.90;;;;;;4822815;29;20033;-50
2022/08/10 07:14:55;;;;;;;6.57;3.80;;;18.80;99.90;;;;;;4822653;29;20061;-50
2022/08/10 07:17:23;;;;;;;16.15;3.25;;;18.90;99.80;;;;;;4822921;29;20038;-51
2022/08/10 07:19:54;;;;;;;4.55;3.70;;;19.00;99.70;;;;;;4822665;29;20490;-50
2022/08/10 07:22:23;;;;;;;14.18;4.50;;;19.10;99.90;;;;;;4822626;29;20034;-50
2022/08/10 07:24:52;;;;;;;8.80;3.70;;;19.20;99.90;;;;;;4822417;29;20123;-52
2022/08/10 07:27:19;;;;;;;9.65;4.78;;;19.20;99.90;;;;;;4822715;29;20443;-50
2022/08/10 07:29:46;;;;;;;9.20;3.33;;;19.50;99.90;;;;;;4822613;29;20054;-50
2022/08/10 07:32:13;;;;;;;8.23;3.78;;;19.60;99.90;;;;;;4823017;29;20061;-51
2022/08/10 07:34:41;;;;;;;11.98;3.38;;;19.70;99.60;;;;;;4822450;29;20014;-50
2022/08/10 07:37:09;;;;;;;10.43;4.20;;;19.80;99.40;;;;;;4822176;29;20109;-51
2022/08/10 07:39:37;;;;;;;7.90;3.75;;;19.80;99.00;;;;;;4821806;29;20021;-51
2022/08/10 07:42:06;;;;;;;22.50;2.92;;;19.90;98.40;;;;;;4822228;29;20045;-50
2022/08/10 07:44:34;;;;;;;10.80;3.15;;;19.90;99.10;;;;;;4821403;29;20535;-50
2022/08/10 07:47:03;;;;;;;5.47;3.38;;;19.90;98.60;;;;;;4822321;29;20111;-50
2022/08/10 07:49:35;;;;;;;6.20;2.75;;;20.00;98.50;;;;;;4822323;29;20364;-50
2022/08/10 07:52:05;;;;;;;10.90;3.27;;;19.90;99.40;;;;;;4821071;29;20023;-50
2022/08/10 07:54:37;;;;;;;13.50;3.50;;;20.00;99.20;;;;;;4822300;29;20033;-51
2022/08/10 07:57:06;;;;;;;7.75;2.72;;;20.10;98.30;;;;;;4822081;29;20029;-51
2022/08/10 07:59:36;;;;;;;6.78;2.45;;;20.30;99.40;;;;;;4821932;29;20034;-50
2022/08/10 08:02:06;;;;;;;6.13;3.03;;;20.20;97.70;;;;;;4822054;29;20023;-50
2022/08/10 08:04:32;;;;;;;11.68;3.60;;;20.30;97.40;;;;;;4822076;29;20030;-54
2022/08/10 08:07:03;;;;;;;4.07;2.30;;;20.30;97.00;;;;;;4821959;29;20023;-51
2022/08/10 08:09:29;;;;;;;3.42;2.30;;;20.70;97.40;;;;;;4821876;29;20096;-50
2022/08/10 08:11:57;;;;;;;8.88;2.92;;;20.90;97.40;;;;;;4820620;29;20030;-50
2022/08/10 08:14:25;;;;;;;11.10;2.33;;;21.00;95.80;;;;;;4821755;29;20111;-50
2022/08/10 08:16:53;;;;;;;10.30;2.47;;;21.10;95.00;;;;;;4821808;29;20042;-51
2022/08/10 08:19:19;;;;;;;10.90;2.00;;;21.10;95.50;;;;;;4821927;29;20525;-50
2022/08/10 08:21:46;;;;;;;4.57;1.92;;;21.10;94.90;;;;;;4822026;29;20030;-50
2022/08/10 08:24:14;;;;;;;7.55;2.38;;;21.30;95.30;;;;;;4821456;29;20030;-52
2022/08/10 08:26:42;;;;;;;2.97;1.70;;;21.30;94.60;;;;;;4820788;29;20034;-50
2022/08/10 08:29:11;;;;;;;5.50;2.22;;;21.40;94.80;;;;;;4821698;29;20418;-50
2022/08/10 08:31:38;;;;;;;4.75;2.03;;;21.60;95.20;;;;;;4821853;29;20057;-51
2022/08/10 08:34:05;;;;;;;7.63;2.00;;;21.80;93.80;;;;;;4821192;29;20053;-51
2022/08/10 08:36:34;;;;;;;7.88;1.90;;;21.70;92.40;;;;;;4821705;29;20063;-52
2022/08/10 08:38:59;;;;;;;5.85;2.00;;;21.90;93.20;;;;;;4821362;29;20038;-50
2022/08/10 08:41:51;;;;;;;8.45;1.98;;;22.10;93.40;;;;;;4820316;29;20041;-51
2022/08/10 08:44:35;;;;;;;7.45;1.73;;;22.30;92.50;;;;;;4820932;29;20050;-50
2022/08/10 08:47:19;;;;;;;8.95;2.00;;;22.10;91.80;;;;;;4820203;29;20559;-51
2022/08/10 08:50:03;;;;;;;3.75;2.03;;;22.20;92.60;;;;;;4821685;29;20394;-50
2022/08/10 08:52:46;;;;;;;9.00;2.25;;;22.40;92.20;;;;;;4818122;29;20503;-52
2022/08/10 08:55:47;;;;;;;11.25;1.98;;;22.50;91.40;;;;;;4820960;29;20153;-52
2022/08/10 08:58:27;;;;;;;11.07;2.65;;;22.60;92.70;;;;;;4820370;29;20399;-49
2022/08/10 09:01:12;;;;;;;8.07;2.47;;;22.60;91.00;;;;;;4821260;29;20475;-50
2022/08/10 09:04:11;;;;;;;2.85;1.88;;;22.40;90.40;;;;;;4821390;29;20109;-51
2022/08/10 09:06:52;;;;;;;11.57;2.60;;;22.30;90.40;;;;;;4821502;29;20387;-51
2022/08/10 09:09:26;;;;;;;6.60;2.20;;;22.30;90.70;;;;;;4821201;29;20483;-51
2022/08/10 09:12:16;;;;;;;9.20;2.00;;;22.50;91.20;;;;;;4821175;29;20493;-51
2022/08/10 09:15:04;;;;;;;6.80;2.10;;;22.60;90.30;;;;;;4819921;29;20076;-51
2022/08/10 09:18:04;;;;;;;6.45;1.92;;;22.40;91.10;;;;;;4821419;29;20030;-50
2022/08/10 09:21:01;;;;;;;3.40;2.20;;;22.70;90.10;;;;;;4803078;29;20113;-50
2022/08/10 09:23:52;;;;;;;4.50;1.65;;;23.00;90.10;;;;;;4802633;29;20058;-50
2022/08/10 09:26:27;;;;;;;5.53;1.80;;;22.80;88.10;;;;;;4820846;29;20060;-50
2022/08/10 09:28:57;;;;;;;13.63;2.85;;;23.00;89.30;;;;;;4820769;29;20125;-53
2022/08/10 09:31:23;;;;;;;14.18;2.50;;;23.40;88.00;;;;;;4821084;29;20027;-51
2022/08/10 09:34:15;;;;;;;7.35;2.15;;;23.50;88.00;;;;;;4819948;29;20027;-50
2022/08/10 09:37:02;;;;;;;20.92;2.20;;;23.40;86.50;;;;;;4820497;29;20673;-50
2022/08/10 09:39:47;;;;;;;6.85;2.00;;;23.30;87.50;;;;;;4820822;29;20038;-50
2022/08/10 09:42:31;;;;;;;9.00;1.95;;;23.40;85.90;;;;;;4819390;29;20030;-49
2022/08/10 09:45:22;;;;;;;4.93;2.30;;;23.40;86.30;;;;;;4820380;29;20526;-50
2022/08/10 09:48:10;;;;;;;3.55;2.22;;;23.60;87.20;;;;;;4820741;29;20073;-51
2022/08/10 09:50:35;;;;;;;13.10;1.98;;;23.50;86.00;;;;;;4820260;29;20099;-49
2022/08/10 09:53:12;;;;;;;5.82;2.10;;;23.50;84.70;;;;;;4820553;29;20472;-50
2022/08/10 09:55:54;;;;;;;4.20;2.10;;;23.60;84.60;;;;;;4819510;29;20038;-50
2022/08/10 09:58:53;;;;;;;10.23;2.33;;;23.80;85.50;;;;;;4820673;29;20030;-51
2022/08/10 10:01:23;;;;;;;7.90;1.95;;;23.80;83.50;;;;;;4820807;29;20344;-51
2022/08/10 10:04:27;;;;;;;12.75;2.10;;;24.00;85.30;;;;;;4820981;29;20112;-50
2022/08/10 10:07:05;;;;;;;6.10;2.10;;;24.50;86.00;;;;;;4821435;29;20125;-53
2022/08/10 10:09:53;;;;;;;7.68;2.33;;;24.30;83.30;;;;;;4823573;29;20057;-50
2022/08/10 10:12:25;;;;;;;9.88;2.45;;;24.50;81.90;;;;;;4824015;29;20483;-50
2022/08/10 10:15:25;;;;;;;11.60;2.45;;;24.40;83.40;;;;;;4823473;29;20055;-49
2022/08/10 10:18:09;;;;;;;7.82;2.10;;;24.80;83.60;;;;;;4822014;29;20490;-51
2022/08/10 10:21:04;;;;;;;6.43;1.98;;;25.00;82.60;;;;;;4811235;29;20057;-52
2022/08/10 10:23:54;;;;;;;10.25;2.25;;;25.20;82.30;;;;;;4823686;29;20027;-52
2022/08/10 10:27:07;;;;;;;11.05;2.10;;;25.30;80.30;;;;;;4823484;29;20053;-51
2022/08/10 10:29:41;;;;;;;6.57;1.92;;;25.40;82.20;;;;;;4820880;29;20034;-55
2022/08/10 10:32:10;;;;;;;7.10;2.53;;;25.60;80.80;;;;;;4820850;29;20026;-58
2022/08/10 10:34:54;;;;;;;5.80;1.88;;;25.60;80.70;;;;;;4822209;29;20099;-58
2022/08/10 10:37:22;;;;;;;10.48;2.65;;;25.80;81.20;;;;;;4822570;29;20115;-58
2022/08/10 10:39:53;;;;;;;2.65;1.90;;;26.10;83.50;;;;;;4823462;29;20272;-57
2022/08/10 10:43:03;;;;;;;7.63;2.15;;;25.90;75.00;;;;;;4823542;29;20450;-57
2022/08/10 10:45:52;;;;;;;10.52;2.60;;;25.30;77.00;;;;;;4822989;29;20035;-55
2022/08/10 10:48:38;;;;;;;3.22;1.80;;;25.40;79.80;;;;;;4823022;29;20038;-56
2022/08/10 10:51:22;;;;;;;3.53;2.10;;;25.70;76.90;;;;;;4822858;29;20066;-53
2022/08/10 10:54:07;;;;;;;7.20;1.75;;;25.90;78.40;;;;;;4823252;29;20034;-56
2022/08/10 10:56:50;;;;;;;8.40;2.40;;;26.30;74.80;;;;;;4809807;29;20034;-55
2022/08/10 10:59:34;;;;;;;4.00;1.92;;;26.30;75.10;;;;;;4822932;29;20075;-56
2022/08/10 11:02:19;;;;;;;12.95;1.65;;;26.30;76.90;;;;;;4823051;29;20045;-54
2022/08/10 11:05:08;;;;;;;4.72;1.85;;;26.10;74.90;;;;;;4822726;29;20038;-55
2022/08/10 11:07:56;;;;;;;9.35;2.42;;;26.30;73.50;;;;;;4821410;29;20563;-54
2022/08/10 11:10:28;;;;;;;10.13;2.20;;;26.70;74.50;;;;;;4822743;29;20062;-57
2022/08/10 11:13:06;;;;;;;8.35;1.80;;;27.00;73.80;;;;;;4822629;29;20055;-53
2022/08/10 11:16:04;;;;;;;3.80;1.95;;;27.40;70.20;;;;;;4822851;29;20038;-56
2022/08/10 11:18:32;;;;;;;14.63;1.75;;;27.20;70.90;;;;;;4822748;29;20041;-55
2022/08/10 11:21:19;;;;;;;7.45;2.22;;;27.00;70.80;;;;;;4822513;29;20064;-57
2022/08/10 11:23:56;;;;;;;6.57;1.60;;;26.90;71.20;;;;;;4823080;29;20036;-55
2022/08/10 11:26:32;;;;;;;9.10;1.90;;;26.70;69.50;;;;;;4823716;29;20038;-56
2022/08/10 11:29:18;;;;;;;2.92;1.70;;;26.70;70.40;;;;;;4812684;29;20042;-56
2022/08/10 11:31:53;;;;;;;12.75;1.63;;;26.90;70.00;;;;;;4822481;29;20494;-55
2022/08/10 11:34:29;;;;;;;8.07;1.50;;;27.10;71.20;;;;;;4820911;29;20038;-57
2022/08/10 11:37:32;;;;;;;7.25;1.65;;;27.30;68.60;;;;;;4822448;29;20031;-53
2022/08/10 11:40:07;;;;;;;8.23;1.90;;;27.40;68.90;;;;;;4821904;29;20499;-57
2022/08/10 11:43:05;;;;;;;10.93;1.77;;;27.30;65.50;;;;;;4822395;29;20037;-56
2022/08/10 11:45:35;;;;;;;4.10;1.30;;;27.20;66.00;;;;;;4815337;29;20031;-56
2022/08/10 11:48:23;;;;;;;7.28;1.80;;;26.90;67.40;;;;;;4820619;29;20026;-55
2022/08/10 11:50:56;;;;;;;3.70;1.30;;;27.00;64.90;;;;;;4820809;29;20360;-55
2022/08/10 11:53:39;;;;;;;2.85;1.45;;;27.50;66.20;;;;;;4820513;29;20023;-56
2022/08/10 11:56:05;;;;;;;8.20;1.73;;;28.50;64.00;;;;;;4820589;29;20038;-55
2022/08/10 12:01:26;;;;;;;9.07;1.95;;;28.90;60.60;;;;;;4822275;29;20041;-55
2022/08/10 12:03:53;;;;;;;15.10;1.83;;;29.80;59.60;;;;;;4821897;29;20034;-58
2022/08/10 12:06:21;;;;;;;3.65;1.30;;;30.60;58.80;;;;;;4821784;29;20030;-57
2022/08/10 12:08:49;;;;;;;4.22;1.52;;;31.30;56.90;;;;;;4803899;29;20088;-57
2022/08/10 12:11:23;;;;;;;5.55;1.45;;;31.40;56.00;;;;;;4821564;29;20125;-57
2022/08/10 12:14:11;;;;;;;6.03;1.42;;;31.40;55.50;;;;;;4821713;29;20051;-56
2022/08/10 12:16:40;;;;;;;9.05;2.03;;;31.40;55.80;;;;;;4822034;29;20113;-55
2022/08/10 12:19:22;;;;;;;10.52;1.48;;;31.40;53.80;;;;;;4821804;29;20029;-57
2022/08/10 12:22:10;;;;;;;4.40;2.00;;;31.80;54.20;;;;;;4821779;29;20034;-57
2022/08/10 12:25:06;;;;;;;10.73;1.98;;;31.80;52.60;;;;;;4821457;29;20030;-58
2022/08/10 12:27:47;;;;;;;9.07;1.48;;;32.40;51.20;;;;;;4821775;29;20034;-58
2022/08/10 12:30:18;;;;;;;2.83;1.50;;;32.20;53.30;;;;;;4820831;29;20042;-56
2022/08/10 12:32:53;;;;;;;3.95;1.50;;;32.00;50.60;;;;;;4822058;29;20034;-58
2022/08/10 12:35:37;;;;;;;9.02;1.45;;;32.20;51.10;;;;;;4815328;29;20109;-59
2022/08/10 12:38:15;;;;;;;9.38;1.13;;;32.10;50.40;;;;;;4822668;29;20042;-52
2022/08/10 12:40:48;;;;;;;8.25;1.55;;;32.10;50.10;;;;;;4822889;29;20035;-52
2022/08/10 12:43:21;;;;;;;4.80;1.40;;;32.10;50.40;;;;;;4822777;29;20501;-53
2022/08/10 12:46:11;;;;;;;14.98;1.52;;;32.90;50.20;;;;;;4822849;29;20038;-52
2022/08/10 12:48:56;;;;;;;5.47;1.55;;;33.40;49.90;;;;;;4822481;29;20041;-51
2022/08/10 12:51:29;;;;;;;5.65;1.70;;;33.30;49.00;;;;;;4822442;29;20026;-51
2022/08/10 12:54:02;;;;;;;4.80;1.48;;;33.60;47.30;;;;;;4821182;29;20495;-56
2022/08/10 12:56:33;;;;;;;6.85;1.50;;;34.30;47.10;;;;;;4822369;29;20463;-52
2022/08/10 12:59:02;;;;;;;15.38;1.55;;;34.20;45.60;;;;;;4822442;29;20045;-53
2022/08/10 13:01:30;;;;;;;17.73;1.45;;;34.30;47.00;;;;;;4822496;29;20407;-51
2022/08/10 13:04:06;;;;;;;14.50;1.90;;;33.30;45.60;;;;;;4822316;29;20046;-54
2022/08/10 13:06:34;;;;;;;7.70;1.33;;;33.40;46.80;;;;;;4822497;29;20041;-52
2022/08/10 13:09:11;;;;;;;8.55;1.60;;;33.80;46.20;;;;;;4822477;29;20023;-54
2022/08/10 13:11:55;;;;;;;3.30;1.55;;;33.70;45.60;;;;;;4822233;29;20471;-56
2022/08/10 13:14:36;;;;;;;10.43;1.65;;;33.60;44.80;;;;;;4822077;29;20137;-51
2022/08/10 13:17:06;;;;;;;9.57;1.73;;;33.50;47.30;;;;;;4822283;29;20384;-56
2022/08/10 13:19:36;;;;;;;13.30;1.90;;;33.50;45.60;;;;;;4795570;29;20121;-56
2022/08/10 13:22:04;;;;;;;8.77;1.38;;;33.80;47.20;;;;;;4793387;29;20035;-54